Eikamaru No.2 — JD3056 — position and weather

sailwx.info

Track history (hours):
 
Tides and Currents Weather Stations Pressure Air Temp Water Temp Dewpoint Dewpoint Depression Visibility Wind Speed Wind Dir Waves Ship Positions

Eikamaru No.2

Last reported at 2015-May-22 10:11 UTC. Time now 2015-May-28 22:18 UTC.
Position N 35°09' E 139°43'.

Length 60 m; draft 3.3 m.

Type: Tanker. MMSI: 431001342.

Date/timePositionNaut miles runAvg speedWind from/ knotsBaromVisibWave heightAir tempDewpointWater temp
2015-May-22 10:11N 35°09' E 139°43'710.9
2015-May-22 09:33N 35°15' E 139°46'1010.2
2015-May-22 08:33N 35°25' E 139°43'7 6.9
2015-May-22 07:33N 35°32' E 139°45'0 0.0
2015-May-22 06:33N 35°32' E 139°45'0 0.0
2015-May-22 05:33N 35°32' E 139°45'0 0.3
2015-May-22 04:33N 35°31' E 139°46'0 0.0
2015-May-22 03:33N 35°31' E 139°46'0 0.0
2015-May-22 02:33N 35°31' E 139°46'1 1.3
2015-May-22 01:33N 35°30' E 139°47'6 5.9
2015-May-22 00:33N 35°32' E 139°54'1010.3
2015-May-21 23:33N 35°36' E 140°06'1 0.7
2015-May-21 22:33N 35°36' E 140°06'0 0.0
2015-May-21 21:33N 35°36' E 140°06'0 0.0
2015-May-21 20:33N 35°36' E 140°06'0 0.0
2015-May-21 19:33N 35°36' E 140°06'0 0.0
2015-May-21 18:33N 35°36' E 140°06'0 0.0
2015-May-21 17:33N 35°36' E 140°06'0 0.0
2015-May-21 16:33N 35°36' E 140°06'0 0.0
2015-May-21 15:33N 35°36' E 140°06'0 0.0
2015-May-21 14:33N 35°36' E 140°06'0 0.0
2015-May-21 13:33N 35°36' E 140°06'0 0.0
2015-May-21 12:33N 35°36' E 140°06'0 0.0
2015-May-21 11:33N 35°36' E 140°06'0 0.0
2015-May-21 10:33N 35°36' E 140°06'0 0.0
2015-May-21 09:33N 35°36' E 140°06'0 0.0
2015-May-21 08:33N 35°36' E 140°06'0 0.0
2015-May-21 07:33N 35°36' E 140°06'0 0.0
2015-May-21 06:33N 35°36' E 140°06'0 0.0
2015-May-21 05:33N 35°36' E 140°06'0 0.0
2015-May-21 04:33N 35°36' E 140°06'7 6.9
2015-May-21 03:33N 35°33' E 139°59'1111.5
2015-May-21 02:33N 35°28' E 139°46'4 2.1
2015-May-21 00:25N 35°29' E 139°41'0 0.0
2015-May-20 23:19N 35°29' E 139°41'1 0.9
2015-May-20 22:33N 35°28' E 139°42'2 1.6
2015-May-20 21:31N 35°28' E 139°43'0 0.0
2015-May-20 20:31N 35°28' E 139°43'0 0.0
2015-May-20 19:31N 35°28' E 139°43'0 0.1
2015-May-20 18:18N 35°28' E 139°44'6 8.7
2015-May-20 17:34N 35°22' E 139°45'1110.9
2015-May-20 16:34N 35°11' E 139°46'1111.1
2015-May-20 15:33N 35°01' E 139°39'238 9.9
2015-May-19 15:25N 33°58' E 135°01'1011.8
2015-May-19 14:33N 34°08' E 134°59'1110.7
2015-May-19 13:31N 34°19' E 134°59'1010.1
2015-May-19 12:33N 34°29' E 135°01'8 8.0
2015-May-19 11:33N 34°37' E 135°02'8 7.8
2015-May-19 10:29N 34°34' E 134°52'31 0.7
2015-May-17 16:21N 34°04' E 134°49'267 9.5
2015-May-16 12:04N 34°59' E 140°07'510.4
2015-May-16 11:33N 35°02' E 140°12'59 8.3
2015-May-16 04:22N 35°56' E 140°42'2 0.5
2015-May-15 23:16N 35°54' E 140°41'2 0.0
2015-May-14 03:17N 35°55' E 140°42'  
Track history (hours):
 
Tides and Currents Weather Stations Pressure Air Temp Water Temp Dewpoint Dewpoint Depression Visibility Wind Speed Wind Dir Waves Ship Positions

Eikamaru No.2

Last reported at 2015-May-22 10:11 UTC. Time now 2015-May-28 22:18 UTC.
Position N 35°09' E 139°43'.

Length 60 m; draft 3.3 m.

Type: Tanker. MMSI: 431001342.

Date/timePositionNaut miles runAvg speedWind from/ knotsBaromVisibWave heightAir tempDewpointWater temp
2015-May-22 10:11N 35°09' E 139°43'710.9
2015-May-22 09:33N 35°15' E 139°46'1010.2
2015-May-22 08:33N 35°25' E 139°43'7 6.9
2015-May-22 07:33N 35°32' E 139°45'0 0.0
2015-May-22 06:33N 35°32' E 139°45'0 0.0
2015-May-22 05:33N 35°32' E 139°45'0 0.3
2015-May-22 04:33N 35°31' E 139°46'0 0.0
2015-May-22 03:33N 35°31' E 139°46'0 0.0
2015-May-22 02:33N 35°31' E 139°46'1 1.3
2015-May-22 01:33N 35°30' E 139°47'6 5.9
2015-May-22 00:33N 35°32' E 139°54'1010.3
2015-May-21 23:33N 35°36' E 140°06'1 0.7
2015-May-21 22:33N 35°36' E 140°06'0 0.0
2015-May-21 21:33N 35°36' E 140°06'0 0.0
2015-May-21 20:33N 35°36' E 140°06'0 0.0
2015-May-21 19:33N 35°36' E 140°06'0 0.0
2015-May-21 18:33N 35°36' E 140°06'0 0.0
2015-May-21 17:33N 35°36' E 140°06'0 0.0
2015-May-21 16:33N 35°36' E 140°06'0 0.0
2015-May-21 15:33N 35°36' E 140°06'0 0.0
2015-May-21 14:33N 35°36' E 140°06'0 0.0
2015-May-21 13:33N 35°36' E 140°06'0 0.0
2015-May-21 12:33N 35°36' E 140°06'0 0.0
2015-May-21 11:33N 35°36' E 140°06'0 0.0
2015-May-21 10:33N 35°36' E 140°06'0 0.0
2015-May-21 09:33N 35°36' E 140°06'0 0.0
2015-May-21 08:33N 35°36' E 140°06'0 0.0
2015-May-21 07:33N 35°36' E 140°06'0 0.0
2015-May-21 06:33N 35°36' E 140°06'0 0.0
2015-May-21 05:33N 35°36' E 140°06'0 0.0
2015-May-21 04:33N 35°36' E 140°06'7 6.9
2015-May-21 03:33N 35°33' E 139°59'1111.5
2015-May-21 02:33N 35°28' E 139°46'4 2.1
2015-May-21 00:25N 35°29' E 139°41'0 0.0
2015-May-20 23:19N 35°29' E 139°41'1 0.9
2015-May-20 22:33N 35°28' E 139°42'2 1.6
2015-May-20 21:31N 35°28' E 139°43'0 0.0
2015-May-20 20:31N 35°28' E 139°43'0 0.0
2015-May-20 19:31N 35°28' E 139°43'0 0.1
2015-May-20 18:18N 35°28' E 139°44'6 8.7
2015-May-20 17:34N 35°22' E 139°45'1110.9
2015-May-20 16:34N 35°11' E 139°46'1111.1
2015-May-20 15:33N 35°01' E 139°39'238 9.9
2015-May-19 15:25N 33°58' E 135°01'1011.8
2015-May-19 14:33N 34°08' E 134°59'1110.7
2015-May-19 13:31N 34°19' E 134°59'1010.1
2015-May-19 12:33N 34°29' E 135°01'8 8.0
2015-May-19 11:33N 34°37' E 135°02'8 7.8
2015-May-19 10:29N 34°34' E 134°52'31 0.7
2015-May-17 16:21N 34°04' E 134°49'267 9.5
2015-May-16 12:04N 34°59' E 140°07'510.4
2015-May-16 11:33N 35°02' E 140°12'59 8.3
2015-May-16 04:22N 35°56' E 140°42'2 0.5
2015-May-15 23:16N 35°54' E 140°41'2 0.0
2015-May-14 03:17N 35°55' E 140°42'  

Dump ship's entire track history